Time;durP1;ratioP1;P1;durP2;ratioP2;P2;SDS_P1;SDS_P2;PMS_P1;PMS_P2;Temp;Humidity;BMP_temperature;BMP_pressure;BME280_temperature;BME280_humidity;BME280_pressure;Samples;Min_cycle;Max_cycle;Signal;HPM_P1;HPM_P2
2021/09/12 00:00:30;;;;;;;8.95;6.22;;;21.10;87.10;;;;;;5033673;28;20108;-69
2021/09/12 00:02:56;;;;;;;9.48;6.28;;;21.10;87.10;;;;;;5035112;28;20109;-69
2021/09/12 00:05:21;;;;;;;9.77;6.78;;;21.10;87.70;;;;;;5035146;28;20025;-69
2021/09/12 00:07:47;;;;;;;9.18;6.47;;;21.10;87.30;;;;;;5033814;28;20029;-69
2021/09/12 00:10:13;;;;;;;10.73;6.68;;;21.10;87.20;;;;;;5034871;28;20026;-69
2021/09/12 00:12:39;;;;;;;9.77;6.50;;;21.10;87.10;;;;;;5033666;28;20421;-69
2021/09/12 00:15:06;;;;;;;9.10;6.63;;;21.10;87.10;;;;;;5034862;28;20099;-69
2021/09/12 00:17:32;;;;;;;10.63;6.93;;;21.10;87.30;;;;;;5033584;28;20033;-68
2021/09/12 00:19:57;;;;;;;12.15;7.57;;;21.10;87.50;;;;;;5034655;28;20371;-69
2021/09/12 00:22:23;;;;;;;9.90;6.95;;;21.10;87.70;;;;;;5034647;28;20033;-69
2021/09/12 00:24:48;;;;;;;9.73;6.88;;;21.10;87.30;;;;;;5033572;28;20435;-68
2021/09/12 00:27:14;;;;;;;12.15;7.10;;;21.10;87.60;;;;;;5034843;28;20562;-69
2021/09/12 00:29:40;;;;;;;10.93;7.38;;;21.10;87.70;;;;;;5034276;28;20509;-69
2021/09/12 00:32:06;;;;;;;11.77;8.13;;;21.10;87.80;;;;;;5033432;28;20036;-70
2021/09/12 00:34:31;;;;;;;10.52;7.03;;;21.10;88.00;;;;;;5034537;28;20036;-70
2021/09/12 00:36:57;;;;;;;12.85;7.95;;;21.10;88.10;;;;;;5034537;28;20025;-69
2021/09/12 00:39:22;;;;;;;10.55;8.00;;;21.10;88.00;;;;;;5032977;28;20029;-69
2021/09/12 00:41:48;;;;;;;10.80;7.35;;;21.10;88.30;;;;;;5034492;28;20022;-69
2021/09/12 00:44:14;;;;;;;12.18;8.15;;;21.00;88.40;;;;;;5049591;28;20487;-69
2021/09/12 00:46:41;;;;;;;11.85;8.63;;;21.10;88.30;;;;;;5033909;28;20487;-68
2021/09/12 00:49:07;;;;;;;11.95;8.85;;;21.00;88.50;;;;;;5049365;28;20060;-69
2021/09/12 00:51:33;;;;;;;12.10;8.60;;;21.00;89.00;;;;;;5034273;28;20053;-69
2021/09/12 00:54:02;;;;;;;12.50;8.55;;;21.00;89.20;;;;;;5032937;28;20475;-69
2021/09/12 00:56:29;;;;;;;12.05;8.52;;;21.00;88.80;;;;;;5034190;28;20033;-68
2021/09/12 00:58:56;;;;;;;12.10;8.30;;;21.00;88.50;;;;;;5032570;28;20067;-69
2021/09/12 01:01:22;;;;;;;12.00;8.88;;;21.10;88.50;;;;;;5026849;28;20026;-68
2021/09/12 01:03:48;;;;;;;13.77;9.05;;;21.10;88.70;;;;;;5029439;28;20026;-69
2021/09/12 01:06:13;;;;;;;12.35;9.13;;;21.10;88.70;;;;;;5012567;28;20193;-69
2021/09/12 01:08:39;;;;;;;11.80;8.55;;;21.10;89.40;;;;;;5027527;28;20033;-68
2021/09/12 01:11:05;;;;;;;12.05;8.90;;;21.10;88.80;;;;;;5013672;28;20491;-69
2021/09/12 01:13:38;;;;;;;13.60;9.10;;;21.10;88.90;;;;;;5028774;28;20044;-69
2021/09/12 01:16:15;;;;;;;13.02;9.15;;;21.10;89.00;;;;;;5014024;28;20022;-70
2021/09/12 01:18:43;;;;;;;13.15;8.98;;;21.10;88.90;;;;;;5013761;28;20479;-69
2021/09/12 01:21:11;;;;;;;13.52;9.45;;;21.10;88.90;;;;;;5028988;28;20135;-69
2021/09/12 01:23:37;;;;;;;12.82;9.18;;;21.10;89.00;;;;;;5029225;28;20075;-69
2021/09/12 01:26:03;;;;;;;13.45;8.73;;;21.00;89.00;;;;;;5029002;28;20025;-70
2021/09/12 01:28:29;;;;;;;12.00;8.77;;;21.10;88.90;;;;;;5028809;28;20115;-70
2021/09/12 01:30:54;;;;;;;13.82;9.30;;;21.10;88.80;;;;;;5028955;28;20479;-69
2021/09/12 01:33:20;;;;;;;13.10;8.88;;;21.10;88.80;;;;;;5013766;28;20534;-69
2021/09/12 01:35:45;;;;;;;13.10;8.93;;;21.10;88.80;;;;;;5028944;28;20022;-69
2021/09/12 01:38:11;;;;;;;12.55;9.02;;;21.10;88.90;;;;;;5013231;28;20080;-69
2021/09/12 01:40:37;;;;;;;13.55;9.50;;;21.10;88.70;;;;;;5028778;28;20037;-69
2021/09/12 01:43:03;;;;;;;15.18;9.25;;;21.10;88.80;;;;;;5028761;28;20018;-69
2021/09/12 01:45:28;;;;;;;11.77;8.40;;;21.10;88.70;;;;;;5028671;28;20018;-69
2021/09/12 01:47:59;;;;;;;12.43;8.70;;;21.10;88.70;;;;;;5028463;28;20405;-69
2021/09/12 01:50:26;;;;;;;12.88;9.18;;;21.10;88.70;;;;;;5013502;28;20494;-68
2021/09/12 01:52:52;;;;;;;12.25;9.27;;;21.00;89.00;;;;;;5013287;28;20479;-69
2021/09/12 01:55:17;;;;;;;14.05;9.57;;;21.00;89.00;;;;;;5013320;28;20030;-69
2021/09/12 01:57:43;;;;;;;12.90;8.73;;;21.00;88.80;;;;;;5028422;28;20040;-69
2021/09/12 02:00:09;;;;;;;12.68;8.80;;;21.00;88.70;;;;;;5028199;28;20033;-68
2021/09/12 02:02:35;;;;;;;12.65;9.15;;;21.00;88.80;;;;;;5013187;28;20026;-69
2021/09/12 02:05:01;;;;;;;13.70;9.45;;;21.00;88.90;;;;;;5028428;28;20034;-68
2021/09/12 02:07:27;;;;;;;13.10;8.93;;;21.00;89.00;;;;;;5014822;28;20038;-69
2021/09/12 02:09:52;;;;;;;12.27;8.85;;;21.00;89.00;;;;;;5030774;28;20032;-69
2021/09/12 02:12:18;;;;;;;12.48;9.18;;;21.00;89.00;;;;;;5032067;28;20033;-69
2021/09/12 02:14:43;;;;;;;15.90;10.55;;;21.00;89.10;;;;;;5031560;28;20124;-68
2021/09/12 02:17:09;;;;;;;13.95;9.45;;;21.00;89.30;;;;;;5032584;28;20033;-69
2021/09/12 02:19:35;;;;;;;14.20;9.55;;;21.00;89.10;;;;;;5031038;28;20029;-68
2021/09/12 02:22:00;;;;;;;15.55;10.18;;;21.00;89.00;;;;;;5031741;28;20037;-69
2021/09/12 02:24:26;;;;;;;14.30;11.00;;;21.00;88.90;;;;;;5031308;28;20060;-69
2021/09/12 02:26:51;;;;;;;13.82;9.95;;;21.00;89.50;;;;;;5031218;28;20053;-69
2021/09/12 02:29:17;;;;;;;14.57;10.68;;;20.80;89.90;;;;;;5031078;28;20566;-69
2021/09/12 02:31:43;;;;;;;15.35;11.48;;;20.80;89.80;;;;;;5032512;28;20029;-69
2021/09/12 02:34:08;;;;;;;14.80;11.32;;;20.80;89.70;;;;;;5031125;28;20029;-69
2021/09/12 02:36:34;;;;;;;14.75;10.82;;;20.80;89.90;;;;;;5032314;28;20072;-69
2021/09/12 02:38:59;;;;;;;15.50;11.35;;;20.80;89.80;;;;;;5030800;28;20025;-69
2021/09/12 02:41:25;;;;;;;17.05;11.98;;;20.80;89.80;;;;;;5032113;28;20117;-69
2021/09/12 02:43:50;;;;;;;16.48;11.40;;;20.90;89.80;;;;;;5031050;28;20022;-70
2021/09/12 02:46:16;;;;;;;16.15;11.07;;;20.90;89.60;;;;;;5032162;28;20074;-69
2021/09/12 02:48:41;;;;;;;15.40;10.75;;;20.90;89.40;;;;;;5031841;28;20028;-69
2021/09/12 02:51:07;;;;;;;15.43;11.05;;;20.90;89.30;;;;;;5030778;28;20364;-69
2021/09/12 02:53:32;;;;;;;15.20;11.30;;;20.90;89.20;;;;;;5030840;28;20025;-68
2021/09/12 02:55:58;;;;;;;16.25;11.38;;;21.00;89.20;;;;;;5030931;28;20017;-69
2021/09/12 02:58:23;;;;;;;15.65;11.13;;;21.00;89.00;;;;;;5030410;28;20025;-69
2021/09/12 03:00:49;;;;;;;16.73;11.75;;;21.00;89.10;;;;;;5031829;28;20528;-69
2021/09/12 03:03:14;;;;;;;16.75;11.90;;;21.00;89.00;;;;;;5031793;28;20025;-69
2021/09/12 03:05:40;;;;;;;16.35;11.57;;;21.00;89.00;;;;;;5030670;28;20390;-69
2021/09/12 03:08:06;;;;;;;16.25;11.77;;;20.90;89.10;;;;;;5030323;28;20483;-70
2021/09/12 03:10:31;;;;;;;17.27;12.48;;;20.90;89.30;;;;;;5031816;28;20491;-68
2021/09/12 03:12:57;;;;;;;17.77;13.15;;;20.90;89.40;;;;;;5031480;28;20021;-69
2021/09/12 03:15:23;;;;;;;19.17;12.77;;;20.90;89.50;;;;;;5031677;28;20483;-69
2021/09/12 03:17:48;;;;;;;18.63;13.10;;;20.90;89.30;;;;;;5031696;28;20445;-69
2021/09/12 03:20:14;;;;;;;18.30;12.65;;;20.90;89.20;;;;;;5031502;28;20071;-69
2021/09/12 03:22:40;;;;;;;18.42;14.02;;;20.90;89.40;;;;;;5031640;28;20396;-69
2021/09/12 03:25:06;;;;;;;19.83;14.40;;;20.90;89.40;;;;;;5031707;28;20033;-70
2021/09/12 03:27:32;;;;;;;20.60;14.77;;;20.80;89.80;;;;;;5031675;28;20021;-68
2021/09/12 03:29:58;;;;;;;20.35;14.27;;;20.80;89.80;;;;;;5031293;28;20096;-68
2021/09/12 03:32:23;;;;;;;24.45;15.20;;;20.90;89.70;;;;;;5031879;28;20030;-69
2021/09/12 03:34:49;;;;;;;21.20;14.85;;;20.80;89.80;;;;;;5035744;28;20112;-70
2021/09/12 03:37:15;;;;;;;19.23;14.95;;;20.80;89.90;;;;;;5034534;28;20108;-69
2021/09/12 03:39:40;;;;;;;19.75;14.48;;;20.80;89.90;;;;;;5034194;28;20020;-69
2021/09/12 03:42:06;;;;;;;18.42;13.30;;;20.80;89.60;;;;;;5034262;28;20091;-69
2021/09/12 03:44:32;;;;;;;19.75;13.98;;;20.90;89.70;;;;;;5035527;28;20026;-69
2021/09/12 03:46:57;;;;;;;17.00;12.57;;;20.80;89.90;;;;;;5034558;28;20032;-70
2021/09/12 03:49:23;;;;;;;18.20;13.07;;;20.80;90.00;;;;;;5033953;28;20051;-69
2021/09/12 03:51:48;;;;;;;18.20;12.70;;;20.80;90.00;;;;;;5035347;28;20029;-70
2021/09/12 03:54:14;;;;;;;17.02;12.55;;;20.90;89.60;;;;;;5034086;28;20029;-70
2021/09/12 03:56:39;;;;;;;18.38;12.63;;;20.80;89.50;;;;;;5033982;28;20045;-69
2021/09/12 03:59:05;;;;;;;17.42;12.30;;;20.90;89.60;;;;;;5033613;28;20037;-69
2021/09/12 04:01:30;;;;;;;15.65;11.73;;;20.90;89.40;;;;;;5035111;28;20025;-68
2021/09/12 04:03:56;;;;;;;14.85;11.07;;;20.90;89.40;;;;;;5035257;28;20029;-69
2021/09/12 04:06:22;;;;;;;16.77;11.55;;;20.90;89.30;;;;;;5033703;28;20028;-68
2021/09/12 04:08:47;;;;;;;15.70;11.52;;;20.90;89.90;;;;;;5034019;28;20028;-69
2021/09/12 04:11:13;;;;;;;17.63;12.10;;;20.80;89.50;;;;;;5033215;28;20024;-69
2021/09/12 04:13:38;;;;;;;18.90;11.75;;;20.80;89.50;;;;;;5035026;28;20520;-68
2021/09/12 04:16:04;;;;;;;15.50;11.30;;;20.80;89.70;;;;;;5033725;28;20021;-69
2021/09/12 04:18:30;;;;;;;16.13;11.45;;;20.80;89.40;;;;;;5033327;28;20021;-69
2021/09/12 04:20:55;;;;;;;15.43;10.85;;;20.90;89.30;;;;;;5031613;28;20021;-68
2021/09/12 04:23:21;;;;;;;16.15;10.90;;;20.80;89.50;;;;;;5034472;28;20101;-68
2021/09/12 04:25:46;;;;;;;14.90;10.43;;;20.90;89.70;;;;;;5033238;28;20017;-67
2021/09/12 04:28:12;;;;;;;15.30;10.63;;;20.80;89.50;;;;;;5034502;28;20029;-70
2021/09/12 04:30:37;;;;;;;14.65;10.10;;;20.80;89.50;;;;;;5034713;28;20052;-69
2021/09/12 04:33:03;;;;;;;13.57;9.95;;;20.80;89.70;;;;;;5034670;28;20025;-70
2021/09/12 04:35:28;;;;;;;13.25;9.82;;;20.80;89.70;;;;;;5033332;28;20033;-69
2021/09/12 04:37:54;;;;;;;14.20;10.23;;;20.70;90.00;;;;;;5034235;28;20029;-69
2021/09/12 04:40:20;;;;;;;13.10;9.00;;;20.70;90.10;;;;;;5033154;28;20022;-69
2021/09/12 04:42:45;;;;;;;12.45;8.88;;;20.70;90.10;;;;;;5033146;28;20475;-68
2021/09/12 04:45:11;;;;;;;13.88;8.57;;;20.70;90.10;;;;;;5032497;28;20024;-70
2021/09/12 04:47:36;;;;;;;13.65;8.30;;;20.70;90.10;;;;;;5033109;28;20422;-70
2021/09/12 04:50:02;;;;;;;12.23;7.78;;;20.70;90.10;;;;;;5033020;28;20022;-70
2021/09/12 04:52:28;;;;;;;11.85;8.60;;;20.70;89.90;;;;;;5033063;28;20036;-69
2021/09/12 04:54:53;;;;;;;11.88;8.20;;;20.80;89.90;;;;;;5034142;28;20097;-68
2021/09/12 04:57:19;;;;;;;13.77;8.30;;;20.70;89.90;;;;;;5034136;28;20037;-69
2021/09/12 04:59:44;;;;;;;11.27;7.88;;;20.70;90.00;;;;;;5033972;28;20106;-69
2021/09/12 05:02:10;;;;;;;12.77;7.70;;;20.70;89.80;;;;;;5034089;28;20053;-69
2021/09/12 05:04:36;;;;;;;16.65;8.10;;;20.80;89.90;;;;;;5032840;28;20024;-69
2021/09/12 05:07:01;;;;;;;11.77;7.75;;;20.70;89.70;;;;;;5034051;28;20087;-69
2021/09/12 05:09:27;;;;;;;12.40;8.52;;;20.80;89.50;;;;;;5033596;28;20025;-69
2021/09/12 05:11:52;;;;;;;12.95;8.38;;;20.70;89.50;;;;;;5033677;28;20028;-69
2021/09/12 05:14:18;;;;;;;12.63;8.90;;;20.70;89.60;;;;;;5032674;28;20528;-69
2021/09/12 05:16:43;;;;;;;12.02;9.00;;;20.70;89.60;;;;;;5033875;28;20025;-68
2021/09/12 05:19:09;;;;;;;13.73;9.65;;;20.70;89.80;;;;;;5033560;28;20403;-69
2021/09/12 05:24:06;;;;;;;;;;;20.70;89.60;;;;;;5033502;28;20045;-76
2021/09/12 05:26:31;;;;;;;15.13;9.52;;;20.70;89.60;;;;;;5017154;28;19912;-75
2021/09/12 05:28:57;;;;;;;13.40;10.35;;;20.70;89.40;;;;;;5033829;28;20028;-76
2021/09/12 05:31:22;;;;;;;14.85;10.02;;;20.70;89.20;;;;;;5017254;28;20482;-76
2021/09/12 05:33:48;;;;;;;12.52;9.23;;;20.70;89.20;;;;;;5034995;28;20032;-76
2021/09/12 05:36:13;;;;;;;13.98;9.98;;;20.70;89.30;;;;;;5034761;28;20060;-75
2021/09/12 05:38:40;;;;;;;14.10;10.13;;;20.70;89.30;;;;;;5034411;28;20021;-75
2021/09/12 05:41:05;;;;;;;15.13;9.90;;;20.70;89.30;;;;;;5016819;28;20022;-76
2021/09/12 05:43:31;;;;;;;14.60;9.82;;;20.60;89.50;;;;;;5016899;28;20112;-78
2021/09/12 05:45:57;;;;;;;14.98;9.40;;;20.70;89.70;;;;;;5017213;28;20025;-75
2021/09/12 05:48:22;;;;;;;15.05;10.50;;;20.70;89.50;;;;;;5017228;28;20022;-75
2021/09/12 05:50:48;;;;;;;15.40;10.10;;;20.70;89.30;;;;;;5034543;28;20049;-75
2021/09/12 05:53:14;;;;;;;16.83;10.45;;;20.70;89.10;;;;;;5017140;28;20044;-75
2021/09/12 05:55:40;;;;;;;16.77;11.20;;;20.70;89.20;;;;;;5018163;28;20045;-75
2021/09/12 05:58:06;;;;;;;16.05;11.18;;;20.70;89.30;;;;;;5016976;28;20548;-75
2021/09/12 06:00:31;;;;;;;15.77;10.88;;;20.70;89.50;;;;;;5016714;28;20104;-75
2021/09/12 06:02:57;;;;;;;17.20;10.88;;;20.70;89.60;;;;;;5034491;28;20018;-76
2021/09/12 06:05:23;;;;;;;16.38;11.50;;;20.60;89.70;;;;;;5034223;28;20115;-76
2021/09/12 06:07:48;;;;;;;16.95;11.73;;;20.60;89.80;;;;;;5016537;28;20057;-78
2021/09/12 06:10:14;;;;;;;15.73;10.80;;;20.70;89.50;;;;;;5016330;28;20128;-75
2021/09/12 06:12:40;;;;;;;17.23;11.63;;;20.70;89.10;;;;;;5033810;28;20548;-75
2021/09/12 06:15:06;;;;;;;19.25;11.50;;;20.70;88.90;;;;;;5016385;28;20057;-75
2021/09/12 06:17:33;;;;;;;16.38;11.50;;;20.70;88.90;;;;;;5016042;28;20080;-75
2021/09/12 06:19:59;;;;;;;18.48;11.57;;;20.70;88.80;;;;;;5015801;28;20443;-77
2021/09/12 06:22:25;;;;;;;17.80;10.77;;;20.70;88.60;;;;;;5016152;28;20025;-76
2021/09/12 06:24:50;;;;;;;15.18;11.00;;;20.70;89.10;;;;;;5033536;28;20028;-77
2021/09/12 06:27:16;;;;;;;15.70;11.02;;;20.70;88.50;;;;;;5015916;28;20021;-76
2021/09/12 06:29:42;;;;;;;15.00;10.45;;;20.70;88.70;;;;;;5015675;28;20715;-76
2021/09/12 06:32:07;;;;;;;15.15;10.63;;;20.70;88.60;;;;;;5016159;28;20026;-76
2021/09/12 06:34:33;;;;;;;16.02;10.45;;;20.70;88.90;;;;;;5033818;28;20113;-78
2021/09/12 06:36:59;;;;;;;16.10;10.88;;;20.60;89.00;;;;;;5033757;28;20117;-75
2021/09/12 06:39:24;;;;;;;16.48;10.05;;;20.60;88.90;;;;;;5015830;28;20022;-75
2021/09/12 06:41:50;;;;;;;16.88;10.75;;;20.70;88.50;;;;;;5015985;28;20791;-76
2021/09/12 06:44:16;;;;;;;15.85;10.98;;;20.70;88.00;;;;;;5033356;28;20025;-76
2021/09/12 06:46:41;;;;;;;16.58;10.15;;;20.60;88.60;;;;;;5015695;28;20065;-76
2021/09/12 06:49:07;;;;;;;15.93;10.80;;;20.70;88.30;;;;;;5015452;28;20116;-76
2021/09/12 06:51:33;;;;;;;17.95;10.68;;;20.70;88.30;;;;;;5033345;28;20037;-76
2021/09/12 06:53:58;;;;;;;17.15;11.05;;;20.60;88.10;;;;;;5033003;28;20033;-76
2021/09/12 06:56:24;;;;;;;18.20;10.93;;;20.60;88.10;;;;;;5012607;28;20152;-77
2021/09/12 06:58:49;;;;;;;16.33;11.15;;;20.80;87.50;;;;;;5011441;28;20113;-76
2021/09/12 07:01:16;;;;;;;16.75;11.23;;;20.80;86.90;;;;;;5018276;28;20025;-76
2021/09/12 07:03:41;;;;;;;19.90;10.40;;;20.70;87.00;;;;;;5033977;28;20029;-76
2021/09/12 07:06:07;;;;;;;14.70;9.35;;;20.80;86.80;;;;;;5015389;28;20017;-76
2021/09/12 07:08:33;;;;;;;14.88;9.73;;;20.90;86.40;;;;;;5013787;28;20441;-77
2021/09/12 07:10:58;;;;;;;14.80;9.63;;;21.00;85.80;;;;;;5006582;28;20064;-77
2021/09/12 07:13:26;;;;;;;15.85;9.45;;;21.00;86.00;;;;;;5012791;28;20112;-78
2021/09/12 07:15:52;;;;;;;13.95;8.68;;;21.00;85.80;;;;;;5012693;28;20052;-77
2021/09/12 07:18:18;;;;;;;15.07;8.68;;;21.00;85.50;;;;;;5013048;28;20673;-76
2021/09/12 07:20:44;;;;;;;14.40;9.23;;;21.00;85.60;;;;;;5022342;28;20027;-76
2021/09/12 07:23:09;;;;;;;15.00;9.05;;;21.10;85.70;;;;;;5030049;28;20144;-76
2021/09/12 07:25:35;;;;;;;12.95;8.15;;;21.00;85.30;;;;;;5030559;28;20033;-80
2021/09/12 07:28:00;;;;;;;13.45;8.93;;;21.00;85.40;;;;;;5030220;28;20497;-77
2021/09/12 07:30:26;;;;;;;16.08;8.15;;;20.90;85.30;;;;;;5012315;28;20034;-77
2021/09/12 07:32:52;;;;;;;14.50;8.57;;;21.00;84.90;;;;;;5012893;28;20056;-77
2021/09/12 07:35:17;;;;;;;12.85;8.07;;;21.00;84.90;;;;;;5012805;28;20068;-76
2021/09/12 07:37:43;;;;;;;14.20;8.70;;;20.90;85.20;;;;;;5012700;28;20037;-76
2021/09/12 07:40:09;;;;;;;13.18;8.07;;;20.90;85.00;;;;;;5012847;28;20132;-76
2021/09/12 07:42:35;;;;;;;13.38;8.00;;;20.90;84.90;;;;;;5012289;28;20478;-76
2021/09/12 07:45:01;;;;;;;12.00;7.00;;;21.00;84.10;;;;;;5030354;28;20134;-76
2021/09/12 07:47:26;;;;;;;13.60;7.38;;;20.90;84.30;;;;;;5012567;28;20651;-76
2021/09/12 07:49:52;;;;;;;11.35;7.30;;;21.00;84.60;;;;;;5012326;28;20029;-77
2021/09/12 07:52:17;;;;;;;12.05;7.13;;;21.10;83.00;;;;;;5009338;28;20049;-77
2021/09/12 07:54:43;;;;;;;15.32;7.57;;;21.10;83.60;;;;;;5017683;28;20033;-77
2021/09/12 07:57:08;;;;;;;12.20;7.38;;;21.20;82.60;;;;;;5020576;28;20033;-76
2021/09/12 07:59:34;;;;;;;27.92;7.80;;;21.30;81.20;;;;;;5009926;28;20270;-77
2021/09/12 08:01:59;;;;;;;12.10;6.40;;;21.30;80.30;;;;;;5010787;28;20111;-76
2021/09/12 08:04:25;;;;;;;14.90;7.13;;;21.40;81.00;;;;;;5027531;28;20052;-78
2021/09/12 08:06:50;;;;;;;12.48;7.03;;;21.40;80.80;;;;;;5028090;28;20041;-77
2021/09/12 08:09:16;;;;;;;12.75;6.70;;;21.50;79.60;;;;;;5029351;28;20033;-76
2021/09/12 08:11:41;;;;;;;11.95;6.03;;;21.50;79.80;;;;;;5010649;28;20072;-77
2021/09/12 08:14:07;;;;;;;11.50;6.15;;;21.50;79.50;;;;;;5009569;28;20041;-76
2021/09/12 08:16:33;;;;;;;14.25;6.38;;;21.50;79.20;;;;;;5010093;28;20420;-76
2021/09/12 08:18:58;;;;;;;12.30;6.35;;;21.50;78.70;;;;;;5027212;28;20025;-76
2021/09/12 08:21:24;;;;;;;13.57;6.40;;;21.60;79.20;;;;;;5017425;28;20029;-76
2021/09/12 08:23:49;;;;;;;11.80;6.68;;;21.60;77.30;;;;;;5019665;28;20526;-75
2021/09/12 08:26:16;;;;;;;11.30;6.97;;;21.60;77.30;;;;;;5016645;28;20453;-77
2021/09/12 08:28:41;;;;;;;11.65;6.60;;;21.50;78.20;;;;;;5007167;28;20028;-78
2021/09/12 08:31:07;;;;;;;11.32;6.25;;;21.30;77.40;;;;;;5011360;28;20026;-77
2021/09/12 08:33:33;;;;;;;12.68;6.20;;;21.30;77.10;;;;;;5013423;28;20053;-77
2021/09/12 08:35:58;;;;;;;9.75;6.15;;;21.40;77.50;;;;;;5014057;28;20060;-76
2021/09/12 08:38:24;;;;;;;14.65;6.20;;;21.50;77.20;;;;;;5013225;28;20384;-77
2021/09/12 08:40:57;;;;;;;12.40;6.93;;;21.50;77.30;;;;;;5014340;28;20079;-77
2021/09/12 08:43:22;;;;;;;12.40;6.80;;;21.40;76.90;;;;;;5013728;28;20091;-78
2021/09/12 08:45:49;;;;;;;10.90;6.10;;;21.40;76.70;;;;;;5014469;28;20022;-76
2021/09/12 08:48:15;;;;;;;11.02;6.00;;;21.40;77.60;;;;;;5013535;28;20495;-76
2021/09/12 08:50:40;;;;;;;11.23;6.70;;;21.50;77.20;;;;;;5014063;28;20042;-77
2021/09/12 08:53:06;;;;;;;13.35;6.82;;;21.40;76.80;;;;;;5013720;28;20029;-78
2021/09/12 08:55:31;;;;;;;13.90;7.45;;;21.30;76.50;;;;;;5013627;28;20029;-78
2021/09/12 08:57:59;;;;;;;12.88;6.60;;;21.30;76.50;;;;;;5013391;28;20026;-77
2021/09/12 09:00:25;;;;;;;13.43;6.28;;;21.40;77.00;;;;;;5013328;28;20025;-77
2021/09/12 09:03:03;;;;;;;10.02;5.70;;;21.50;76.50;;;;;;5014156;28;20036;-78
2021/09/12 09:05:29;;;;;;;10.35;5.60;;;21.50;76.30;;;;;;5013592;28;20410;-77
2021/09/12 09:08:09;;;;;;;9.00;5.97;;;21.60;75.40;;;;;;5013183;28;20268;-77
2021/09/12 09:10:46;;;;;;;9.30;5.50;;;21.70;76.00;;;;;;5010398;28;20029;-75
2021/09/12 09:13:29;;;;;;;10.07;4.97;;;21.80;75.90;;;;;;5011380;28;20053;-78
2021/09/12 09:15:56;;;;;;;9.48;5.10;;;21.80;74.00;;;;;;5010921;28;20045;-77
2021/09/12 09:18:42;;;;;;;7.85;4.32;;;21.80;74.70;;;;;;5009662;28;20035;-77
2021/09/12 09:21:29;;;;;;;8.02;4.63;;;21.90;74.40;;;;;;5009580;28;20494;-76
2021/09/12 09:24:15;;;;;;;10.60;4.63;;;21.90;74.60;;;;;;5010826;28;20037;-77
2021/09/12 09:26:46;;;;;;;8.32;4.10;;;21.90;75.80;;;;;;5027803;28;20025;-77
2021/09/12 09:29:12;;;;;;;8.50;4.40;;;22.00;75.70;;;;;;5008059;28;20029;-76
2021/09/12 09:31:39;;;;;;;7.63;4.20;;;22.00;74.70;;;;;;4992312;28;20037;-76
2021/09/12 09:34:21;;;;;;;9.10;4.43;;;22.00;75.30;;;;;;5007710;28;20026;-77
2021/09/12 09:36:49;;;;;;;9.27;4.50;;;22.10;75.20;;;;;;5008083;28;20104;-76
2021/09/12 09:39:55;;;;;;;11.15;4.28;;;22.10;74.50;;;;;;5009704;28;20168;-77
2021/09/12 09:42:33;;;;;;;9.00;4.88;;;22.10;74.50;;;;;;4963634;28;20377;-74
2021/09/12 09:45:08;;;;;;;11.27;4.97;;;22.00;74.30;;;;;;4963456;28;20139;-77
2021/09/12 09:47:35;;;;;;;9.75;4.70;;;22.00;75.20;;;;;;5003821;28;20065;-77
2021/09/12 09:50:14;;;;;;;9.38;4.68;;;22.10;75.30;;;;;;5009670;28;20394;-77
2021/09/12 09:52:42;;;;;;;9.57;5.00;;;22.20;74.80;;;;;;5027359;28;20112;-74
2021/09/12 09:55:09;;;;;;;8.25;4.22;;;22.10;73.70;;;;;;5027181;28;20079;-76
2021/09/12 09:57:34;;;;;;;11.70;5.40;;;22.10;73.60;;;;;;5004660;28;20053;-77
2021/09/12 10:00:02;;;;;;;9.57;5.03;;;22.00;73.80;;;;;;4992814;28;20056;-76
2021/09/12 10:02:28;;;;;;;10.43;5.28;;;22.10;73.40;;;;;;4992836;28;20034;-77
2021/09/12 10:04:54;;;;;;;10.88;5.25;;;22.10;73.60;;;;;;5009582;28;20394;-75
2021/09/12 10:07:22;;;;;;;9.45;5.07;;;22.20;72.80;;;;;;5027899;28;20025;-76
2021/09/12 10:09:48;;;;;;;12.70;5.47;;;22.20;73.50;;;;;;5008795;28;20072;-77
2021/09/12 10:12:15;;;;;;;10.77;4.80;;;22.20;73.00;;;;;;5033017;28;20059;-77
2021/09/12 10:14:50;;;;;;;10.10;4.50;;;22.30;72.70;;;;;;5005024;28;20029;-76
2021/09/12 10:17:20;;;;;;;8.55;4.65;;;22.30;74.00;;;;;;5001114;28;20017;-76
2021/09/12 10:19:46;;;;;;;11.05;5.45;;;22.30;72.50;;;;;;4999482;28;20030;-75
2021/09/12 10:22:15;;;;;;;10.75;5.18;;;22.30;72.00;;;;;;5006854;28;20040;-75
2021/09/12 10:25:05;;;;;;;9.88;5.07;;;22.20;72.10;;;;;;5001307;28;20037;-77
2021/09/12 10:27:39;;;;;;;8.75;5.25;;;22.30;71.70;;;;;;5014928;28;20025;-74
2021/09/12 10:30:36;;;;;;;9.77;5.78;;;22.10;71.20;;;;;;4998557;28;20506;-76
2021/09/12 10:33:05;;;;;;;9.57;5.30;;;22.00;71.50;;;;;;4989113;28;20386;-76
2021/09/12 10:35:39;;;;;;;10.27;5.88;;;22.10;72.00;;;;;;4989134;28;20045;-76
2021/09/12 10:38:13;;;;;;;10.50;5.65;;;22.10;71.60;;;;;;5024160;28;20557;-76
2021/09/12 10:40:48;;;;;;;11.32;5.90;;;22.20;71.20;;;;;;5008288;28;20044;-74
2021/09/12 10:43:25;;;;;;;9.30;5.13;;;22.20;71.80;;;;;;5023221;28;20036;-77
2021/09/12 10:46:11;;;;;;;8.38;4.72;;;22.30;72.10;;;;;;4994870;28;20030;-77
2021/09/12 10:49:04;;;;;;;11.10;4.50;;;22.50;72.20;;;;;;4978538;28;20033;-77
2021/09/12 10:51:30;;;;;;;9.93;4.50;;;22.60;72.10;;;;;;4981191;28;20091;-77
2021/09/12 10:53:59;;;;;;;8.55;4.70;;;22.60;71.70;;;;;;4990854;28;20522;-77
2021/09/12 10:56:25;;;;;;;7.72;4.45;;;22.70;72.10;;;;;;5021606;28;20021;-77
2021/09/12 10:58:57;;;;;;;10.15;4.45;;;22.70;71.80;;;;;;5010441;28;20044;-77
2021/09/12 11:01:34;;;;;;;9.50;4.78;;;22.60;71.90;;;;;;5008042;28;20029;-77
2021/09/12 11:04:01;;;;;;;12.02;4.78;;;22.40;70.70;;;;;;5009000;28;20022;-77
2021/09/12 11:06:30;;;;;;;7.18;4.28;;;22.30;70.50;;;;;;5009017;28;20021;-77
2021/09/12 11:08:56;;;;;;;9.23;4.65;;;22.20;69.90;;;;;;5008409;28;20125;-76
2021/09/12 11:11:24;;;;;;;9.27;4.10;;;22.00;70.90;;;;;;5025660;28;20037;-76
2021/09/12 11:13:54;;;;;;;9.50;4.47;;;22.00;71.80;;;;;;5008033;28;20056;-76
2021/09/12 11:16:21;;;;;;;8.23;4.40;;;22.00;71.50;;;;;;5002278;28;20045;-77
2021/09/12 11:18:56;;;;;;;10.18;4.45;;;22.00;71.10;;;;;;5002786;28;20717;-77
2021/09/12 11:21:31;;;;;;;7.97;4.55;;;21.70;70.40;;;;;;5009476;28;20028;-77
2021/09/12 11:24:03;;;;;;;8.15;4.35;;;21.50;70.60;;;;;;5006063;28;20061;-77
2021/09/12 11:26:50;;;;;;;7.13;3.88;;;21.30;70.30;;;;;;4989526;28;20479;-75
2021/09/12 11:29:23;;;;;;;7.15;3.67;;;21.50;72.60;;;;;;4987138;28;20026;-72
2021/09/12 11:31:51;;;;;;;7.90;3.92;;;21.40;70.90;;;;;;5001439;28;20036;-75
2021/09/12 11:34:23;;;;;;;10.45;4.22;;;21.60;70.20;;;;;;5016906;28;20055;-76
2021/09/12 11:37:08;;;;;;;;;;;21.50;69.50;;;;;;4999034;28;21012;-75
2021/09/12 11:39:39;;;;;;;8.77;4.00;;;21.60;69.80;;;;;;4993749;28;19917;-76
2021/09/12 11:42:07;;;;;;;9.57;3.70;;;21.90;69.80;;;;;;5020657;28;20021;-76
2021/09/12 11:44:38;;;;;;;7.38;3.60;;;21.90;70.90;;;;;;5008946;28;20057;-76
2021/09/12 11:47:12;;;;;;;6.60;3.20;;;21.90;69.60;;;;;;5008616;28;20030;-74
2021/09/12 11:49:39;;;;;;;9.18;3.65;;;21.80;69.40;;;;;;5008410;28;20033;-77
2021/09/12 11:52:05;;;;;;;7.63;2.95;;;21.80;69.00;;;;;;5009373;28;20440;-77
2021/09/12 11:54:32;;;;;;;9.23;3.25;;;22.00;70.60;;;;;;5026434;28;20035;-77
2021/09/12 11:57:13;;;;;;;10.48;3.50;;;22.00;68.10;;;;;;5010654;28;20033;-76
2021/09/12 11:59:44;;;;;;;7.88;3.10;;;22.00;70.60;;;;;;5020686;28;20096;-76
2021/09/12 12:02:11;;;;;;;;;;;22.00;70.20;;;;;;4992317;28;20037;-77
2021/09/12 12:04:39;;;;;;;6.63;2.97;;;22.10;67.80;;;;;;5004295;28;20354;-78
2021/09/12 12:07:05;;;;;;;7.25;2.97;;;22.00;66.40;;;;;;5029615;28;20085;-76
2021/09/12 12:09:42;;;;;;;6.95;3.25;;;21.90;66.20;;;;;;5011254;28;20053;-76
2021/09/12 12:12:11;;;;;;;7.00;3.28;;;21.90;69.10;;;;;;5028799;28;20030;-76
2021/09/12 12:14:48;;;;;;;7.72;2.90;;;22.00;69.20;;;;;;5005561;28;20112;-76
2021/09/12 12:17:16;;;;;;;7.40;3.38;;;21.90;66.90;;;;;;5011414;28;20434;-75
2021/09/12 12:19:41;;;;;;;5.68;2.80;;;21.70;66.80;;;;;;5029069;28;20087;-76
2021/09/12 12:22:08;;;;;;;7.70;3.40;;;21.70;67.10;;;;;;5011151;28;20033;-76
2021/09/12 12:24:39;;;;;;;7.00;2.92;;;21.70;67.30;;;;;;5011362;28;20132;-75
2021/09/12 12:27:10;;;;;;;6.00;2.95;;;21.70;67.10;;;;;;5029288;28;20032;-75
2021/09/12 12:29:40;;;;;;;8.05;3.17;;;21.70;66.60;;;;;;5010823;28;20037;-75
2021/09/12 12:32:07;;;;;;;6.80;2.75;;;21.70;67.50;;;;;;5029169;28;20025;-76
2021/09/12 12:34:41;;;;;;;7.80;2.80;;;21.90;66.60;;;;;;5011356;28;20095;-74
2021/09/12 12:37:08;;;;;;;5.32;2.40;;;21.90;66.20;;;;;;5012890;28;20029;-75
2021/09/12 12:39:34;;;;;;;5.43;2.58;;;21.90;65.70;;;;;;5028892;28;20108;-75
2021/09/12 12:42:00;;;;;;;7.30;3.08;;;21.80;66.20;;;;;;5010365;28;20124;-74